Time;durP1;ratioP1;P1;durP2;ratioP2;P2;SDS_P1;SDS_P2;PMS_P1;PMS_P2;Temp;Humidity;BMP_temperature;BMP_pressure;BME280_temperature;BME280_humidity;BME280_pressure;Samples;Min_cycle;Max_cycle;Signal;HPM_P1;HPM_P2
2022/11/26 00:00:46;;;;;;;97.90;33.07;;;;;;;;;;4990699;28;20047;-65
2022/11/26 00:03:12;;;;;;;89.93;30.80;;;;;;;;;;4991118;28;20050;-65
2022/11/26 00:05:40;;;;;;;102.10;33.03;;;;;;;;;;4991694;28;20045;-65
2022/11/26 00:08:14;;;;;;;90.20;33.50;;;;;;;;;;4989482;28;20624;-65
2022/11/26 00:10:40;;;;;;;112.20;33.63;;;;;;;;;;4990635;28;20052;-65
2022/11/26 00:13:13;;;;;;;79.80;28.73;;;;;;;;;;4990572;28;20050;-65
2022/11/26 00:15:39;;;;;;;103.78;34.65;;;;;;;;;;4990300;28;20429;-65
2022/11/26 00:18:05;;;;;;;92.17;35.57;;;;;;;;;;5005211;28;20505;-65
2022/11/26 00:20:31;;;;;;;95.33;33.07;;;;;;;;;;5010006;28;20049;-65
2022/11/26 00:23:00;;;;;;;95.83;32.33;;;;;;;;;;5010057;28;20042;-65
2022/11/26 00:25:32;;;;;;;114.27;34.93;;;;;;;;;;5009887;28;20054;-65
2022/11/26 00:27:59;;;;;;;90.83;32.80;;;;;;;;;;5010137;28;20420;-65
2022/11/26 00:30:26;;;;;;;101.77;34.67;;;;;;;;;;5010099;28;20050;-65
2022/11/26 00:32:53;;;;;;;98.77;30.47;;;;;;;;;;5009945;28;20080;-65
2022/11/26 00:35:20;;;;;;;98.77;34.83;;;;;;;;;;5009908;28;20050;-65
2022/11/26 00:37:51;;;;;;;92.10;33.07;;;;;;;;;;5009656;28;20046;-65
2022/11/26 00:40:22;;;;;;;110.17;35.10;;;;;;;;;;5009872;28;20046;-64
2022/11/26 00:42:49;;;;;;;89.53;35.27;;;;;;;;;;5008254;28;20096;-65
2022/11/26 00:45:15;;;;;;;108.33;36.53;;;;;;;;;;5007995;28;20052;-65
2022/11/26 00:47:41;;;;;;;117.03;37.17;;;;;;;;;;5010093;28;20119;-65
2022/11/26 00:50:08;;;;;;;102.70;35.93;;;;;;;;;;5009224;28;20049;-65
2022/11/26 00:52:35;;;;;;;102.47;37.53;;;;;;;;;;5009676;28;20088;-65
2022/11/26 00:55:09;;;;;;;132.23;39.97;;;;;;;;;;5009662;28;20049;-65
2022/11/26 00:57:35;;;;;;;136.73;43.50;;;;;;;;;;5008486;28;20054;-65
2022/11/26 01:00:02;;;;;;;111.83;37.90;;;;;;;;;;5008366;28;20076;-65
2022/11/26 01:02:28;;;;;;;102.47;36.97;;;;;;;;;;5008361;28;20054;-65
2022/11/26 01:04:53;;;;;;;109.43;36.63;;;;;;;;;;4993699;28;20053;-65
2022/11/26 01:07:20;;;;;;;110.37;38.67;;;;;;;;;;4989931;28;20049;-65
2022/11/26 01:09:46;;;;;;;103.40;36.77;;;;;;;;;;4989726;28;20531;-65
2022/11/26 01:12:13;;;;;;;122.60;40.57;;;;;;;;;;4989641;28;20129;-65
2022/11/26 01:14:39;;;;;;;122.30;41.87;;;;;;;;;;4990021;28;20055;-65
2022/11/26 01:17:09;;;;;;;115.33;40.43;;;;;;;;;;4989764;28;20038;-65
2022/11/26 01:19:35;;;;;;;107.57;38.03;;;;;;;;;;4989995;28;20046;-65
2022/11/26 01:22:01;;;;;;;115.13;40.67;;;;;;;;;;4989729;28;20746;-65
2022/11/26 01:24:27;;;;;;;94.83;37.97;;;;;;;;;;4989620;28;20051;-65
2022/11/26 01:26:53;;;;;;;87.80;36.33;;;;;;;;;;4991378;28;20066;-65
2022/11/26 01:29:19;;;;;;;100.33;40.67;;;;;;;;;;5008390;28;20069;-65
2022/11/26 01:31:46;;;;;;;105.63;37.33;;;;;;;;;;5013057;28;20049;-65
2022/11/26 01:34:12;;;;;;;120.07;42.77;;;;;;;;;;5012997;28;20046;-65
2022/11/26 01:36:39;;;;;;;110.60;38.83;;;;;;;;;;5012916;28;20038;-65
2022/11/26 01:39:19;;;;;;;123.10;40.90;;;;;;;;;;5013212;28;20144;-65
2022/11/26 01:41:45;;;;;;;102.87;38.53;;;;;;;;;;5011632;28;20424;-65
2022/11/26 01:44:25;;;;;;;88.23;36.93;;;;;;;;;;5012729;28;20045;-65
2022/11/26 01:46:52;;;;;;;102.80;36.20;;;;;;;;;;5011302;28;20493;-65
2022/11/26 01:49:22;;;;;;;89.23;35.03;;;;;;;;;;5012990;28;20511;-65
2022/11/26 01:51:53;;;;;;;97.90;36.33;;;;;;;;;;5012964;28;20053;-65
2022/11/26 01:54:19;;;;;;;92.33;35.53;;;;;;;;;;5012630;28;20196;-65
2022/11/26 01:56:47;;;;;;;113.27;41.73;;;;;;;;;;5011344;28;20515;-65
2022/11/26 01:59:16;;;;;;;104.23;39.33;;;;;;;;;;5012376;28;20038;-65
2022/11/26 02:01:42;;;;;;;111.57;37.77;;;;;;;;;;5012326;28;20127;-65
2022/11/26 02:04:15;;;;;;;104.57;37.13;;;;;;;;;;5000743;28;20490;-65
2022/11/26 02:06:42;;;;;;;97.87;39.20;;;;;;;;;;4994025;28;20085;-65
2022/11/26 02:09:09;;;;;;;111.17;40.03;;;;;;;;;;4992960;28;20286;-65
2022/11/26 02:11:35;;;;;;;107.23;39.07;;;;;;;;;;4992808;28;20100;-65
2022/11/26 02:14:06;;;;;;;116.77;38.23;;;;;;;;;;4992353;28;20050;-65
2022/11/26 02:16:38;;;;;;;98.20;35.07;;;;;;;;;;4992977;28;20142;-65
2022/11/26 02:19:24;;;;;;;99.67;36.23;;;;;;;;;;4991286;28;20720;-65
2022/11/26 02:21:55;;;;;;;105.23;38.00;;;;;;;;;;4990837;28;20576;-65
2022/11/26 02:24:34;;;;;;;110.63;40.50;;;;;;;;;;4991016;28;20108;-65
2022/11/26 02:27:33;;;;;;;111.17;41.40;;;;;;;;;;4992361;28;20058;-65
2022/11/26 02:30:04;;;;;;;94.07;36.83;;;;;;;;;;4980391;28;20058;-65
2022/11/26 02:32:40;;;;;;;101.57;38.13;;;;;;;;;;5006668;28;20479;-65
2022/11/26 02:35:10;;;;;;;109.47;37.50;;;;;;;;;;5010516;28;20534;-65
2022/11/26 02:37:45;;;;;;;100.10;39.13;;;;;;;;;;5011589;28;20053;-65
2022/11/26 02:40:11;;;;;;;93.83;33.37;;;;;;;;;;5011354;28;20045;-65
2022/11/26 02:42:37;;;;;;;94.03;35.37;;;;;;;;;;5010778;28;20046;-65
2022/11/26 02:45:08;;;;;;;107.53;38.23;;;;;;;;;;5011156;28;20500;-65
2022/11/26 02:47:35;;;;;;;93.63;36.43;;;;;;;;;;5011231;28;20081;-65
2022/11/26 02:50:05;;;;;;;105.53;37.50;;;;;;;;;;5011368;28;20046;-65
2022/11/26 02:52:32;;;;;;;116.17;40.10;;;;;;;;;;5011326;28;20053;-65
2022/11/26 02:54:59;;;;;;;99.80;37.03;;;;;;;;;;5010689;28;20046;-65
2022/11/26 02:57:28;;;;;;;116.10;39.27;;;;;;;;;;5009781;28;20045;-65
2022/11/26 02:59:55;;;;;;;106.57;38.77;;;;;;;;;;4991596;28;20436;-65
2022/11/26 03:02:44;;;;;;;121.13;41.23;;;;;;;;;;4991860;28;20038;-65
2022/11/26 03:05:11;;;;;;;111.07;41.93;;;;;;;;;;5004616;28;20090;-65
2022/11/26 03:07:37;;;;;;;123.33;42.77;;;;;;;;;;5010542;28;20045;-65
2022/11/26 03:10:04;;;;;;;144.83;43.73;;;;;;;;;;5010504;28;20523;-65
2022/11/26 03:12:30;;;;;;;131.03;41.73;;;;;;;;;;5010631;28;20067;-65
2022/11/26 03:14:56;;;;;;;169.40;48.40;;;;;;;;;;5008934;28;20046;-65
2022/11/26 03:17:22;;;;;;;171.20;52.10;;;;;;;;;;5010670;28;20053;-65
2022/11/26 03:19:48;;;;;;;163.17;48.03;;;;;;;;;;5009870;28;20523;-64
2022/11/26 03:22:15;;;;;;;144.37;43.30;;;;;;;;;;5009611;28;20098;-65
2022/11/26 03:24:41;;;;;;;154.17;46.43;;;;;;;;;;5008105;28;20692;-64
2022/11/26 03:27:07;;;;;;;160.00;47.40;;;;;;;;;;5009848;28;20512;-65
2022/11/26 03:29:33;;;;;;;153.93;46.33;;;;;;;;;;5010183;28;20559;-65
2022/11/26 03:31:59;;;;;;;141.80;47.17;;;;;;;;;;5009392;28;20050;-65
2022/11/26 03:34:25;;;;;;;145.83;46.73;;;;;;;;;;5009815;28;20038;-65
2022/11/26 03:36:52;;;;;;;146.07;46.77;;;;;;;;;;5009736;28;20042;-65
2022/11/26 03:39:18;;;;;;;162.50;49.67;;;;;;;;;;5008329;28;20045;-65
2022/11/26 03:41:44;;;;;;;163.63;49.77;;;;;;;;;;5001875;28;20057;-65
2022/11/26 03:44:13;;;;;;;173.27;55.40;;;;;;;;;;4990011;28;20058;-65
2022/11/26 03:46:39;;;;;;;146.73;50.07;;;;;;;;;;4990068;28;20786;-65
2022/11/26 03:49:05;;;;;;;129.37;47.60;;;;;;;;;;4988392;28;20093;-65
2022/11/26 03:51:31;;;;;;;165.23;52.07;;;;;;;;;;4989899;28;20050;-65
2022/11/26 03:53:57;;;;;;;159.57;50.43;;;;;;;;;;4972115;28;20754;-65
2022/11/26 03:56:23;;;;;;;173.53;53.37;;;;;;;;;;4989691;28;20046;-65
2022/11/26 03:58:49;;;;;;;201.23;58.00;;;;;;;;;;4989591;28;20046;-65
2022/11/26 04:01:15;;;;;;;214.73;59.53;;;;;;;;;;4989634;28;20412;-65
2022/11/26 04:03:41;;;;;;;177.97;56.20;;;;;;;;;;4989487;28;20336;-65
2022/11/26 04:06:07;;;;;;;157.27;52.40;;;;;;;;;;4989793;28;20038;-65
2022/11/26 04:08:34;;;;;;;191.90;58.90;;;;;;;;;;5008608;28;20042;-65
2022/11/26 04:11:00;;;;;;;142.87;51.13;;;;;;;;;;5008957;28;20500;-66
2022/11/26 04:13:25;;;;;;;137.57;48.67;;;;;;;;;;4991805;28;20049;-66
2022/11/26 04:15:52;;;;;;;146.83;50.40;;;;;;;;;;4989659;28;20050;-65
2022/11/26 04:18:18;;;;;;;138.87;46.63;;;;;;;;;;4989522;28;20065;-65
2022/11/26 04:20:44;;;;;;;166.37;55.10;;;;;;;;;;4988283;28;20137;-65
2022/11/26 04:23:10;;;;;;;152.27;52.73;;;;;;;;;;4988177;28;20046;-65
2022/11/26 04:25:36;;;;;;;139.50;48.97;;;;;;;;;;4995208;28;20042;-65
2022/11/26 04:28:02;;;;;;;173.90;54.53;;;;;;;;;;4990582;28;20057;-65
2022/11/26 04:30:28;;;;;;;156.57;52.50;;;;;;;;;;4989507;28;20093;-65
2022/11/26 04:32:54;;;;;;;140.20;49.73;;;;;;;;;;4989119;28;20464;-65
2022/11/26 04:35:20;;;;;;;145.33;50.50;;;;;;;;;;4989393;28;20038;-65
2022/11/26 04:37:46;;;;;;;161.00;52.63;;;;;;;;;;4988981;28;20050;-65
2022/11/26 04:40:12;;;;;;;155.13;52.17;;;;;;;;;;4989255;28;20043;-65
2022/11/26 04:42:38;;;;;;;178.57;57.33;;;;;;;;;;4999100;28;20136;-65
2022/11/26 04:45:04;;;;;;;176.00;53.97;;;;;;;;;;5008240;28;20539;-65
2022/11/26 04:47:30;;;;;;;191.73;54.97;;;;;;;;;;5008639;28;20053;-65
2022/11/26 04:49:56;;;;;;;177.43;57.83;;;;;;;;;;5007546;28;20045;-65
2022/11/26 04:52:22;;;;;;;176.77;55.93;;;;;;;;;;5007369;28;20527;-65
2022/11/26 04:54:48;;;;;;;213.87;63.67;;;;;;;;;;5008775;28;20153;-65
2022/11/26 04:57:14;;;;;;;219.70;63.33;;;;;;;;;;5008344;28;20045;-65
2022/11/26 04:59:40;;;;;;;166.07;53.60;;;;;;;;;;5006712;28;20053;-65
2022/11/26 05:02:07;;;;;;;147.50;51.63;;;;;;;;;;5007502;28;20046;-65
2022/11/26 05:04:33;;;;;;;168.53;56.00;;;;;;;;;;5008909;28;20068;-65
2022/11/26 05:06:59;;;;;;;180.10;54.97;;;;;;;;;;5013388;28;20042;-65
2022/11/26 05:09:25;;;;;;;137.40;48.77;;;;;;;;;;5013444;28;20856;-65
2022/11/26 05:11:51;;;;;;;173.93;55.97;;;;;;;;;;5013390;28;20042;-65
2022/11/26 05:14:17;;;;;;;139.13;48.67;;;;;;;;;;5013450;28;20037;-65
2022/11/26 05:16:43;;;;;;;142.33;50.13;;;;;;;;;;5013403;28;20135;-65
2022/11/26 05:19:09;;;;;;;134.03;48.47;;;;;;;;;;5012045;28;20528;-65
2022/11/26 05:21:35;;;;;;;254.13;65.23;;;;;;;;;;5013348;28;20092;-65
2022/11/26 05:24:01;;;;;;;148.50;47.70;;;;;;;;;;5005093;28;20042;-65
2022/11/26 05:26:27;;;;;;;187.60;55.37;;;;;;;;;;5003628;28;20046;-65
2022/11/26 05:28:53;;;;;;;152.47;48.80;;;;;;;;;;5011673;28;20099;-65
2022/11/26 05:31:19;;;;;;;178.33;54.07;;;;;;;;;;5013233;28;20460;-65
2022/11/26 05:33:45;;;;;;;183.37;54.37;;;;;;;;;;5011803;28;20492;-65
2022/11/26 05:36:11;;;;;;;148.27;50.63;;;;;;;;;;5013012;28;20052;-65
2022/11/26 05:38:37;;;;;;;132.03;47.83;;;;;;;;;;5012645;28;20650;-65
2022/11/26 05:41:03;;;;;;;116.37;43.40;;;;;;;;;;5013166;28;20077;-65
2022/11/26 05:43:29;;;;;;;167.53;50.53;;;;;;;;;;5012162;28;20065;-65
2022/11/26 05:45:55;;;;;;;141.43;48.33;;;;;;;;;;5013027;28;20072;-65
2022/11/26 05:48:21;;;;;;;137.53;46.90;;;;;;;;;;5012864;28;20053;-65
2022/11/26 05:50:47;;;;;;;124.03;43.73;;;;;;;;;;5012150;28;20096;-65
2022/11/26 05:53:13;;;;;;;130.67;46.87;;;;;;;;;;5002953;28;20390;-65
2022/11/26 05:55:39;;;;;;;150.30;49.90;;;;;;;;;;4993266;28;20054;-65
2022/11/26 05:58:08;;;;;;;130.90;45.60;;;;;;;;;;5001158;28;20960;-65
2022/11/26 06:00:34;;;;;;;142.87;46.60;;;;;;;;;;5012524;28;20065;-65
2022/11/26 06:03:00;;;;;;;132.77;45.00;;;;;;;;;;5012331;28;20046;-65
2022/11/26 06:05:26;;;;;;;126.87;44.30;;;;;;;;;;5002634;28;20122;-65
2022/11/26 06:07:52;;;;;;;170.70;52.73;;;;;;;;;;4991920;28;20440;-65
2022/11/26 06:10:19;;;;;;;122.47;42.13;;;;;;;;;;4992519;28;20080;-65
2022/11/26 06:12:45;;;;;;;111.37;40.33;;;;;;;;;;4975404;28;20137;-66
2022/11/26 06:15:11;;;;;;;132.37;45.73;;;;;;;;;;4992646;28;20125;-66
2022/11/26 06:17:37;;;;;;;134.63;46.30;;;;;;;;;;4993643;28;20038;-66
2022/11/26 06:20:03;;;;;;;102.63;36.60;;;;;;;;;;4992804;28;20060;-66
2022/11/26 06:22:29;;;;;;;91.60;35.17;;;;;;;;;;4996832;28;20130;-66
2022/11/26 06:24:55;;;;;;;107.17;38.57;;;;;;;;;;4991436;28;20046;-65
2022/11/26 06:27:21;;;;;;;90.87;36.57;;;;;;;;;;4992676;28;20045;-65
2022/11/26 06:29:47;;;;;;;115.13;43.60;;;;;;;;;;4996733;28;20055;-65
2022/11/26 06:32:13;;;;;;;160.10;48.80;;;;;;;;;;5011422;28;20042;-66
2022/11/26 06:34:39;;;;;;;141.43;44.43;;;;;;;;;;4998704;28;20076;-66
2022/11/26 06:37:05;;;;;;;119.17;39.77;;;;;;;;;;4993078;28;20536;-65
2022/11/26 06:39:31;;;;;;;102.83;39.10;;;;;;;;;;4991131;28;20042;-66
2022/11/26 06:41:57;;;;;;;112.13;40.13;;;;;;;;;;4991718;28;20050;-67
2022/11/26 06:44:23;;;;;;;118.77;42.30;;;;;;;;;;4992611;28;20065;-65
2022/11/26 06:46:49;;;;;;;113.70;40.97;;;;;;;;;;4992427;28;20500;-66
2022/11/26 06:49:15;;;;;;;115.53;40.53;;;;;;;;;;4992507;28;20081;-64
2022/11/26 06:51:41;;;;;;;116.07;42.87;;;;;;;;;;4992026;28;20497;-66
2022/11/26 06:54:07;;;;;;;119.33;42.70;;;;;;;;;;4992645;28;20054;-64
2022/11/26 06:56:34;;;;;;;99.77;38.20;;;;;;;;;;4991588;28;20057;-65
2022/11/26 06:59:01;;;;;;;132.60;42.67;;;;;;;;;;4990861;28;20061;-66
2022/11/26 07:01:27;;;;;;;119.77;41.90;;;;;;;;;;4991777;28;20057;-66
2022/11/26 07:03:54;;;;;;;100.57;37.43;;;;;;;;;;4990345;28;20049;-66
2022/11/26 07:06:27;;;;;;;101.83;34.73;;;;;;;;;;4975706;28;20125;-66
2022/11/26 07:08:54;;;;;;;123.47;38.28;;;;;;;;;;4991667;28;20133;-66
2022/11/26 07:11:20;;;;;;;100.07;36.30;;;;;;;;;;4991551;28;20089;-65
2022/11/26 07:13:47;;;;;;;96.67;35.80;;;;;;;;;;4991654;28;20046;-65
2022/11/26 07:16:13;;;;;;;104.70;34.97;;;;;;;;;;4991514;28;20419;-66
2022/11/26 07:18:39;;;;;;;100.70;37.53;;;;;;;;;;4990363;28;20046;-66
2022/11/26 07:21:06;;;;;;;102.47;34.97;;;;;;;;;;4991627;28;20129;-65
2022/11/26 07:23:32;;;;;;;122.13;38.73;;;;;;;;;;4990611;28;20539;-65
2022/11/26 07:25:59;;;;;;;107.03;37.90;;;;;;;;;;4991101;28;20047;-66
2022/11/26 07:28:25;;;;;;;97.27;33.73;;;;;;;;;;4990186;28;20050;-66
2022/11/26 07:30:51;;;;;;;91.63;34.47;;;;;;;;;;4991986;28;20042;-64
2022/11/26 07:33:17;;;;;;;100.63;36.30;;;;;;;;;;4991781;28;20077;-66
2022/11/26 07:35:43;;;;;;;126.40;40.70;;;;;;;;;;4990541;28;20072;-66
2022/11/26 07:38:09;;;;;;;135.77;41.97;;;;;;;;;;4972765;28;20054;-66
2022/11/26 07:40:35;;;;;;;83.90;30.73;;;;;;;;;;4973390;28;20608;-66
2022/11/26 07:43:01;;;;;;;95.83;34.80;;;;;;;;;;4990636;28;20137;-66
2022/11/26 07:45:27;;;;;;;91.27;34.23;;;;;;;;;;4990328;28;20428;-66
2022/11/26 07:47:53;;;;;;;94.33;33.80;;;;;;;;;;4990854;28;20058;-66
2022/11/26 07:50:19;;;;;;;116.67;36.00;;;;;;;;;;4989520;28;20049;-66
2022/11/26 07:52:45;;;;;;;98.40;35.20;;;;;;;;;;4991618;28;20038;-66
2022/11/26 07:55:11;;;;;;;75.13;31.57;;;;;;;;;;4990050;28;20052;-66
2022/11/26 07:57:37;;;;;;;72.93;31.80;;;;;;;;;;4990292;28;20089;-66
2022/11/26 08:00:04;;;;;;;89.63;34.70;;;;;;;;;;4989285;28;20441;-66
2022/11/26 08:02:30;;;;;;;85.63;33.13;;;;;;;;;;4990798;28;20072;-66
2022/11/26 08:04:56;;;;;;;86.10;32.77;;;;;;;;;;5009818;28;20100;-67
2022/11/26 08:07:22;;;;;;;79.93;34.30;;;;;;;;;;5008565;28;20119;-67
2022/11/26 08:09:48;;;;;;;72.13;31.83;;;;;;;;;;4975679;28;20046;-67
2022/11/26 08:12:14;;;;;;;84.73;35.93;;;;;;;;;;4989119;28;20101;-67
2022/11/26 08:14:40;;;;;;;83.20;35.83;;;;;;;;;;4989731;28;20042;-65
2022/11/26 08:17:06;;;;;;;85.00;36.47;;;;;;;;;;4988702;28;20056;-65
2022/11/26 08:19:32;;;;;;;81.43;33.27;;;;;;;;;;4988891;28;20050;-65
2022/11/26 08:21:58;;;;;;;81.50;33.93;;;;;;;;;;4988433;28;20046;-66
2022/11/26 08:24:24;;;;;;;93.33;37.67;;;;;;;;;;4990806;28;20042;-66
2022/11/26 08:26:50;;;;;;;69.17;30.60;;;;;;;;;;4989732;28;20420;-65
2022/11/26 08:29:16;;;;;;;73.03;31.83;;;;;;;;;;4992466;28;20046;-67
2022/11/26 08:31:46;;;;;;;82.47;33.73;;;;;;;;;;4988215;28;20049;-67
2022/11/26 08:34:13;;;;;;;70.57;31.77;;;;;;;;;;4988823;28;20080;-64
2022/11/26 08:36:40;;;;;;;79.00;34.67;;;;;;;;;;4989880;28;20049;-64
2022/11/26 08:39:06;;;;;;;80.37;34.97;;;;;;;;;;4989167;28;20042;-65
2022/11/26 08:41:32;;;;;;;68.73;29.03;;;;;;;;;;4989214;28;20105;-64
2022/11/26 08:43:58;;;;;;;72.60;31.30;;;;;;;;;;4999080;28;20050;-64
2022/11/26 08:46:24;;;;;;;81.23;30.23;;;;;;;;;;4989845;28;20046;-65
2022/11/26 08:48:50;;;;;;;70.53;28.70;;;;;;;;;;4989782;28;20050;-65
2022/11/26 08:51:16;;;;;;;76.23;32.37;;;;;;;;;;4988439;28;20046;-64
2022/11/26 08:53:44;;;;;;;72.33;33.40;;;;;;;;;;4989326;28;20100;-64
2022/11/26 08:56:11;;;;;;;73.23;32.43;;;;;;;;;;4989684;28;20124;-65
2022/11/26 08:58:41;;;;;;;77.50;35.70;;;;;;;;;;5008778;28;20172;-65
2022/11/26 09:01:12;;;;;;;78.73;33.47;;;;;;;;;;5007687;28;20534;-64
2022/11/26 09:03:38;;;;;;;77.03;34.47;;;;;;;;;;5009122;28;20046;-65
2022/11/26 09:06:05;;;;;;;74.37;32.83;;;;;;;;;;5009490;28;20120;-65
2022/11/26 09:08:33;;;;;;;71.23;33.00;;;;;;;;;;5009103;28;20042;-64
2022/11/26 09:10:59;;;;;;;72.20;34.87;;;;;;;;;;5009517;28;20054;-64
2022/11/26 09:13:26;;;;;;;74.63;33.67;;;;;;;;;;5009524;28;20128;-65
2022/11/26 09:15:52;;;;;;;74.97;30.73;;;;;;;;;;4992627;28;20046;-65
2022/11/26 09:18:18;;;;;;;78.40;33.80;;;;;;;;;;4989853;28;20046;-64
2022/11/26 09:20:44;;;;;;;74.13;32.93;;;;;;;;;;4988360;28;20046;-64
2022/11/26 09:23:10;;;;;;;86.73;34.03;;;;;;;;;;4989389;28;20457;-64
2022/11/26 09:25:39;;;;;;;74.30;32.97;;;;;;;;;;4990924;28;20049;-64
2022/11/26 09:28:05;;;;;;;88.30;37.70;;;;;;;;;;4994449;28;20066;-64
2022/11/26 09:30:32;;;;;;;84.57;33.70;;;;;;;;;;4997057;28;20043;-64
2022/11/26 09:32:58;;;;;;;75.77;34.50;;;;;;;;;;4989766;28;20046;-65
2022/11/26 09:35:24;;;;;;;87.30;36.57;;;;;;;;;;5008365;28;20382;-64
2022/11/26 09:37:50;;;;;;;79.07;36.13;;;;;;;;;;5008750;28;20049;-64
2022/11/26 09:40:17;;;;;;;78.53;36.20;;;;;;;;;;5009267;28;20042;-65
2022/11/26 09:42:55;;;;;;;79.27;37.30;;;;;;;;;;5007564;28;20062;-64
2022/11/26 09:45:24;;;;;;;97.33;39.87;;;;;;;;;;5008662;28;20130;-65
2022/11/26 09:47:52;;;;;;;87.23;36.73;;;;;;;;;;5008538;28;20516;-66
2022/11/26 09:50:30;;;;;;;97.83;40.30;;;;;;;;;;5008304;28;20136;-66
2022/11/26 09:53:01;;;;;;;99.50;41.50;;;;;;;;;;5004935;28;20053;-65
2022/11/26 09:55:35;;;;;;;88.70;37.90;;;;;;;;;;5009506;28;20044;-65
2022/11/26 09:58:19;;;;;;;87.70;38.42;;;;;;;;;;5009824;28;20041;-65
2022/11/26 10:00:47;;;;;;;95.00;37.50;;;;;;;;;;5003993;28;20049;-65
2022/11/26 10:03:13;;;;;;;83.57;37.20;;;;;;;;;;5011128;28;20060;-65
2022/11/26 10:05:49;;;;;;;86.37;37.63;;;;;;;;;;5011365;28;20552;-65
2022/11/26 10:08:38;;;;;;;93.17;39.47;;;;;;;;;;5010443;28;20570;-65
2022/11/26 10:11:07;;;;;;;78.37;37.40;;;;;;;;;;4996947;28;20053;-65
2022/11/26 10:13:44;;;;;;;96.40;40.17;;;;;;;;;;4994827;28;20524;-65
2022/11/26 10:16:10;;;;;;;98.00;40.73;;;;;;;;;;5008615;28;20076;-65
2022/11/26 10:18:39;;;;;;;104.30;41.43;;;;;;;;;;5011257;28;20049;-65
2022/11/26 10:21:05;;;;;;;100.30;41.57;;;;;;;;;;4993649;28;20050;-65
2022/11/26 10:23:44;;;;;;;88.20;37.93;;;;;;;;;;5006812;28;20389;-65
2022/11/26 10:26:28;;;;;;;96.97;40.00;;;;;;;;;;5002437;28;20121;-65
2022/11/26 10:29:14;;;;;;;83.90;38.20;;;;;;;;;;5003472;28;20046;-64
2022/11/26 10:31:42;;;;;;;109.23;42.53;;;;;;;;;;5007879;28;20054;-65
2022/11/26 10:34:12;;;;;;;94.53;39.43;;;;;;;;;;5010468;28;20096;-65
2022/11/26 10:36:38;;;;;;;114.97;43.57;;;;;;;;;;5010700;28;20062;-64
2022/11/26 10:39:06;;;;;;;86.97;38.37;;;;;;;;;;5010706;28;20045;-65
2022/11/26 10:41:36;;;;;;;95.70;40.53;;;;;;;;;;5011131;28;20067;-64
2022/11/26 10:44:21;;;;;;;99.03;41.17;;;;;;;;;;5010203;28;20069;-66
2022/11/26 10:46:47;;;;;;;92.77;38.37;;;;;;;;;;4999550;28;20050;-65
2022/11/26 10:49:21;;;;;;;95.67;38.27;;;;;;;;;;4994361;28;20476;-65
2022/11/26 10:51:48;;;;;;;82.10;34.73;;;;;;;;;;5011041;28;20046;-65
2022/11/26 10:54:32;;;;;;;90.67;37.00;;;;;;;;;;5004121;28;20085;-65
2022/11/26 10:57:05;;;;;;;107.17;40.03;;;;;;;;;;4990957;28;20050;-65
2022/11/26 10:59:57;;;;;;;82.60;35.45;;;;;;;;;;5004417;28;20042;-65
2022/11/26 11:02:23;;;;;;;85.63;35.70;;;;;;;;;;4996942;28;20054;-65
2022/11/26 11:04:51;;;;;;;89.87;37.77;;;;;;;;;;5007239;28;20054;-65
2022/11/26 11:07:36;;;;;;;80.93;34.83;;;;;;;;;;5005865;28;20046;-66
2022/11/26 11:10:12;;;;;;;76.40;30.23;;;;;;;;;;5002928;28;20549;-65
2022/11/26 11:12:39;;;;;;;65.63;30.63;;;;;;;;;;5006891;28;20053;-65
2022/11/26 11:15:17;;;;;;;78.57;32.77;;;;;;;;;;5009240;28;20512;-65
2022/11/26 11:17:45;;;;;;;69.17;30.03;;;;;;;;;;5005204;28;20050;-65
2022/11/26 11:20:17;;;;;;;88.93;31.27;;;;;;;;;;4990412;28;20046;-65
2022/11/26 11:22:43;;;;;;;68.30;28.00;;;;;;;;;;4988376;28;20050;-65
2022/11/26 11:25:23;;;;;;;74.07;29.47;;;;;;;;;;4990264;28;20172;-65
2022/11/26 11:27:49;;;;;;;65.03;29.63;;;;;;;;;;4990558;28;20039;-64
2022/11/26 11:30:24;;;;;;;66.40;28.10;;;;;;;;;;4990112;28;20074;-65
2022/11/26 11:32:50;;;;;;;70.90;28.37;;;;;;;;;;4989674;28;20047;-65
2022/11/26 11:35:19;;;;;;;62.83;27.17;;;;;;;;;;5004425;28;20057;-65
2022/11/26 11:37:52;;;;;;;68.00;28.87;;;;;;;;;;5009778;28;20108;-65
2022/11/26 11:40:24;;;;;;;74.47;29.90;;;;;;;;;;4999893;28;20080;-65
2022/11/26 11:42:51;;;;;;;61.80;25.20;;;;;;;;;;4999176;28;20061;-65
2022/11/26 11:45:21;;;;;;;65.40;25.20;;;;;;;;;;4995012;28;20515;-65
2022/11/26 11:47:50;;;;;;;61.83;24.83;;;;;;;;;;4971871;28;20042;-65
2022/11/26 11:50:22;;;;;;;61.07;25.70;;;;;;;;;;4989707;28;20057;-65
2022/11/26 11:53:07;;;;;;;45.00;22.03;;;;;;;;;;4990554;28;20342;-65
2022/11/26 11:55:47;;;;;;;54.80;22.73;;;;;;;;;;4987745;28;20607;-65
2022/11/26 11:58:13;;;;;;;49.80;21.63;;;;;;;;;;4990026;28;20055;-65
2022/11/26 12:00:46;;;;;;;56.63;24.20;;;;;;;;;;4989335;28;20118;-65
2022/11/26 12:03:35;;;;;;;46.40;21.73;;;;;;;;;;5008606;28;20710;-65
2022/11/26 12:06:11;;;;;;;56.07;22.77;;;;;;;;;;5007857;28;20050;-65
2022/11/26 12:08:55;;;;;;;57.17;23.23;;;;;;;;;;5009101;28;20132;-65
2022/11/26 12:11:21;;;;;;;50.90;23.97;;;;;;;;;;5008141;28;20045;-65
2022/11/26 12:13:52;;;;;;;57.10;23.87;;;;;;;;;;4996910;28;20056;-65
2022/11/26 12:16:20;;;;;;;49.43;22.53;;;;;;;;;;5002445;28;20038;-66
2022/11/26 12:18:49;;;;;;;54.73;22.47;;;;;;;;;;5013503;28;20056;-66
2022/11/26 12:21:16;;;;;;;55.33;24.20;;;;;;;;;;5008617;28;20041;-66
2022/11/26 12:23:52;;;;;;;58.47;23.80;;;;;;;;;;4997269;28;20057;-66
2022/11/26 12:26:18;;;;;;;56.27;21.60;;;;;;;;;;5009044;28;20542;-66
2022/11/26 12:28:57;;;;;;;51.50;21.97;;;;;;;;;;5009609;28;20485;-66
2022/11/26 12:31:30;;;;;;;48.63;20.90;;;;;;;;;;5008664;28;20046;-66
2022/11/26 12:34:11;;;;;;;50.25;22.10;;;;;;;;;;5008227;28;20054;-65
2022/11/26 12:36:40;;;;;;;56.20;22.03;;;;;;;;;;5009580;28;20050;-66
2022/11/26 12:39:17;;;;;;;48.93;21.53;;;;;;;;;;5009563;28;20057;-64
2022/11/26 12:41:47;;;;;;;50.60;19.57;;;;;;;;;;5008328;28;20049;-64
2022/11/26 12:44:16;;;;;;;48.87;21.77;;;;;;;;;;5008837;28;20058;-64
2022/11/26 12:47:04;;;;;;;49.27;21.07;;;;;;;;;;5007732;28;20057;-66
2022/11/26 12:49:35;;;;;;;49.13;20.17;;;;;;;;;;5006024;28;20108;-68
2022/11/26 12:52:01;;;;;;;45.60;19.90;;;;;;;;;;4991954;28;20504;-67
2022/11/26 12:54:33;;;;;;;43.00;20.63;;;;;;;;;;4991045;28;20054;-67
2022/11/26 12:57:06;;;;;;;43.77;19.37;;;;;;;;;;5008208;28;20053;-64
2022/11/26 12:59:36;;;;;;;44.72;19.98;;;;;;;;;;5006987;28;20060;-65
2022/11/26 13:02:19;;;;;;;46.97;20.47;;;;;;;;;;5009480;28;20076;-65
2022/11/26 13:04:46;;;;;;;47.72;19.27;;;;;;;;;;5009505;28;20381;-64
2022/11/26 13:07:18;;;;;;;42.33;18.63;;;;;;;;;;5008730;28;20044;-66
2022/11/26 13:09:54;;;;;;;48.00;19.15;;;;;;;;;;5010159;28;20124;-67
2022/11/26 13:12:22;;;;;;;45.80;17.43;;;;;;;;;;5008662;28;20496;-67
2022/11/26 13:14:49;;;;;;;36.20;17.87;;;;;;;;;;5008870;28;20108;-65
2022/11/26 13:17:16;;;;;;;39.63;19.00;;;;;;;;;;5009290;28;20061;-65
2022/11/26 13:20:01;;;;;;;47.93;18.30;;;;;;;;;;5008706;28;20412;-64
2022/11/26 13:22:50;;;;;;;49.83;19.80;;;;;;;;;;5008158;28;20551;-65
2022/11/26 13:25:16;;;;;;;44.03;18.03;;;;;;;;;;5008501;28;20081;-66
2022/11/26 13:27:52;;;;;;;42.03;19.27;;;;;;;;;;5012630;28;20077;-66
2022/11/26 13:30:20;;;;;;;36.27;17.60;;;;;;;;;;5012768;28;20092;-66
2022/11/26 13:32:52;;;;;;;41.43;18.63;;;;;;;;;;5012395;28;20046;-67
2022/11/26 13:35:37;;;;;;;46.93;17.77;;;;;;;;;;5012743;28;20501;-67
2022/11/26 13:38:10;;;;;;;43.10;18.47;;;;;;;;;;5011910;28;20086;-67
2022/11/26 13:40:42;;;;;;;37.42;18.30;;;;;;;;;;5010785;28;20056;-67
2022/11/26 13:43:14;;;;;;;38.73;18.73;;;;;;;;;;5011318;28;20137;-67
2022/11/26 13:45:43;;;;;;;49.80;19.67;;;;;;;;;;5012123;28;20046;-67
2022/11/26 13:48:13;;;;;;;38.30;19.20;;;;;;;;;;5011259;28;20496;-67
2022/11/26 13:50:52;;;;;;;52.90;20.80;;;;;;;;;;5011006;28;20618;-65
2022/11/26 13:53:27;;;;;;;39.67;19.00;;;;;;;;;;5011655;28;20046;-67
2022/11/26 13:55:56;;;;;;;47.57;20.77;;;;;;;;;;5012475;28;20473;-67
2022/11/26 13:58:26;;;;;;;42.00;19.00;;;;;;;;;;5011678;28;20042;-67
2022/11/26 14:00:52;;;;;;;46.77;19.27;;;;;;;;;;5010889;28;20045;-67
2022/11/26 14:03:37;;;;;;;48.50;19.20;;;;;;;;;;5010235;28;20157;-67
2022/11/26 14:06:06;;;;;;;44.03;19.40;;;;;;;;;;5009554;28;20049;-67
2022/11/26 14:08:34;;;;;;;42.30;18.63;;;;;;;;;;5009227;28;20065;-66
2022/11/26 14:11:00;;;;;;;42.27;18.53;;;;;;;;;;5009433;28;20522;-67
2022/11/26 14:13:26;;;;;;;46.10;18.03;;;;;;;;;;5008751;28;20046;-67
2022/11/26 14:16:08;;;;;;;44.63;17.83;;;;;;;;;;5007188;28;20054;-67
2022/11/26 14:18:50;;;;;;;44.67;18.80;;;;;;;;;;5008959;28;20962;-67
2022/11/26 14:21:20;;;;;;;43.40;18.37;;;;;;;;;;5007917;28;20088;-67